• Join FlightAware (Why Join?)
  • Login
  • US Flag 
Trick or treat! (Boo!!) 
11:29PM EDT


 

Airport Tracker/Info


-or-


 

Live Flight TrackerFlight Track Log ✈ FD456 ✈ 19-Jul-2013 ✈ YBTL / TSV - YBMA / ISA

Flight Track Log - Related Links

Times and Time Zones

All times are in EDT time to prevent confusion due to time zone crossing. See the FD456 flight status page for this flight to view local times or setup timezone preferences in your user account.

Time Position Orientation Groundspeed Altitude Reporting Facility
EDT Latitude Longitude Course Direction KTS MPH feet Rate Location/Type
10:59AM -19.2570 146.7650 206° Southwest 131 151 400  Level FlightAware
11:00AM -19.2650 146.7610 205° Southwest 124 143 800 1,920 Climbing FlightAware
11:00AM -19.2710 146.7620 171° South 118 136 1,200 1,980 Climbing FlightAware
11:00AM -19.2780 146.7740 122° Southeast 116 133 2,000 1,620 Climbing FlightAware
11:00AM -19.2800 146.7790 113° Southeast 120 138 2,200 1,740 Climbing FlightAware
11:01AM -19.2570 146.7810 North 153 176 3,600 1,800 Climbing FlightAware
11:01AM -19.2510 146.7710 302° West 158 182 4,000 1,800 Climbing FlightAware
11:02AM -19.2480 146.7600 286° West 163 188 4,500 2,040 Climbing FlightAware
11:02AM -19.2500 146.7320 266° West 165 190 5,700 1,800 Climbing FlightAware
11:03AM -19.2550 146.7120 255° West 170 196 6,300 1,440 Climbing FlightAware
11:03AM -19.2570 146.6990 261° West 177 204 6,700 1,500 Climbing FlightAware
11:03AM -19.2630 146.6740 256° West 185 213 7,400 1,380 Climbing FlightAware
11:04AM -19.2670 146.6540 258° West 185 213 8,000 1,680 Climbing FlightAware
11:04AM -19.2730 146.6270 257° West 180 207 9,000 1,740 Climbing FlightAware
11:05AM -19.2780 146.6030 258° West 183 211 9,600 1,620 Climbing FlightAware
11:05AM -19.2856 146.5688 258° West 178 205 10,700 1,500 Climbing Aus ATC (RADAR)
11:05AM -19.2870 146.5640 258° West 187 215 10,700 1,200 Level FlightAware
11:06AM -19.2950 146.5280 257° West 181 208 11,700 1,380 Climbing FlightAware
11:07AM -19.3030 146.4890 258° West 178 205 12,700 1,200 Climbing FlightAware
11:07AM -19.3099 146.4554 258° West 180 207 13,400 840 Climbing Aus ATC (RADAR)
11:08AM -19.3110 146.4530 258° West 191 220 13,300 1,080 Descending FlightAware
11:08AM -19.3190 146.4120 258° West 191 220 14,300 1,260 Climbing FlightAware
11:09AM -19.3270 146.3760 257° West 193 222 15,100 1,260 Climbing FlightAware
11:10AM -19.3359 146.3343 257° West 187 215 16,100 1,260 Climbing Aus ATC (RADAR)
11:10AM -19.3370 146.3330 257° West 190 219 16,100 1,200 Level FlightAware
11:10AM -19.3440 146.2980 258° West 179 206 17,000 720 Climbing FlightAware
11:11AM -19.3530 146.2520 258° West 176 203 17,300 1,260 Climbing FlightAware
11:12AM -19.3620 146.2170 255° West 170 196 19,100 1,980 Climbing FlightAware
11:13AM -19.3704 146.1800 255° West 161 185 20,000 1,080 Climbing Aus ATC (RADAR)
11:13AM -19.3700 146.1820 255° West 168 193 19,900  Descending FlightAware
11:13AM -19.3770 146.1460 258° West 197 227 20,000 60 Climbing FlightAware
11:14AM -19.3870 146.1010 257° West 217 250 20,000  Level FlightAware
11:15AM -19.3940 146.0630 257° West 227 261 20,000 120 Level FlightAware
11:15AM -19.3971 146.0513 257° West 218 251 20,100  Climbing Aus ATC (RADAR)
11:15AM -19.4040 146.0200 256° West 231 266 20,000 -120 Descending FlightAware
11:16AM -19.4140 145.9740 257° West 235 270 20,000  Level FlightAware
11:17AM -19.4240 145.9250 258° West 237 273 20,000  Level FlightAware
11:17AM -19.4340 145.8790 257° West 236 272 20,000 60 Level FlightAware
11:18AM -19.4434 145.8385 257° West 235 270 20,100  Climbing Aus ATC (RADAR)
11:18AM -19.4450 145.8280 257° West 237 273 20,000 -120 Descending FlightAware
11:19AM -19.4550 145.7820 257° West 236 272 20,000  Level FlightAware
11:20AM -19.4640 145.7380 258° West 237 273 20,000 60 Level FlightAware
11:20AM -19.4732 145.6972 258° West 235 270 20,100  Climbing Aus ATC (RADAR)
11:20AM -19.4750 145.6870 258° West 236 272 20,000 -120 Descending FlightAware
11:21AM -19.4850 145.6400 257° West 235 270 20,000  Level FlightAware
11:22AM -19.4960 145.5900 257° West 235 270 20,000 60 Level FlightAware
11:22AM -19.5039 145.5509 257° West 234 269 20,100  Climbing Aus ATC (RADAR)
11:22AM -19.5050 145.5450 257° West 235 270 20,000 -120 Descending FlightAware
11:23AM -19.5160 145.4930 257° West 236 272 20,000  Level FlightAware
11:24AM -19.5240 145.4540 258° West 237 273 20,000  Level FlightAware
11:24AM -19.5340 145.4080 258° West 238 274 20,000 120 Level FlightAware
11:24AM -19.5348 145.4035 258° West 240 276 20,100  Climbing Aus ATC (RADAR)
11:25AM -19.5440 145.3630 257° West 237 273 20,000 -120 Descending FlightAware
11:26AM -19.5530 145.3170 258° West 237 273 20,000  Level FlightAware
11:26AM -19.5640 145.2680 257° West 238 274 20,000  Level FlightAware
11:27AM -19.5730 145.2220 258° West 238 274 20,000  Level FlightAware
11:28AM -19.5830 145.1730 258° West 238 274 20,000  Level FlightAware
11:28AM -19.5930 145.1270 258° West 237 273 20,000 120 Level FlightAware
11:29AM -19.5957 145.1136 258° West 232 267 20,100  Climbing Aus ATC (RADAR)
11:30AM -19.6070 145.0610 257° West 237 273 20,000 -120 Descending FlightAware
11:30AM -19.6150 145.0240 257° West 237 273 20,000 60 Level FlightAware
11:31AM -19.6278 144.9607 257° West 229 264 20,100  Climbing Aus ATC (RADAR)
11:31AM -19.6230 144.9880 257° West 237 273 20,000  Descending FlightAware
11:32AM -19.6407 144.8927 257° West 232 267 20,100  Climbing Aus ATC (RADAR)
11:33AM -19.6559 144.8200 258° West 229 264 20,100  Level Aus ATC (RADAR)
11:34AM -19.6709 144.7468 258° West 233 268 20,100  Level Aus ATC (RADAR)
11:35AM -19.6844 144.6801 258° West 227 261 20,100  Level Aus ATC (RADAR)
11:36AM -19.7005 144.6018 258° West 232 267 20,100  Level Aus ATC (RADAR)
11:37AM -19.7141 144.5349 258° West 229 264 20,100  Level Aus ATC (RADAR)
11:38AM -19.7286 144.4622 258° West 232 267 20,100  Level Aus ATC (RADAR)
11:39AM -19.7437 144.3897 258° West 229 264 20,100  Level Aus ATC (RADAR)
11:40AM -19.7573 144.3225 258° West 234 269 20,100  Level Aus ATC (RADAR)
11:41AM -19.7726 144.2497 257° West 234 269 20,100  Level Aus ATC (RADAR)
11:43AM -19.7872 144.1767 258° West 234 269 20,100  Level Aus ATC (RADAR)
11:44AM -19.8015 144.1035 258° West 233 268 20,100  Level Aus ATC (RADAR)
11:45AM -19.8151 144.0365 258° West 233 268 20,100  Level Aus ATC (RADAR)
11:46AM -19.8316 143.9528 258° West 232 267 20,100  Level Aus ATC (RADAR)
11:47AM -19.8463 143.8802 258° West 233 268 20,100  Level Aus ATC (RADAR)
11:48AM -19.8605 143.8081 258° West 231 266 20,100  Level Aus ATC (RADAR)
11:49AM -19.8742 143.7414 258° West 232 267 20,100  Level Aus ATC (RADAR)
11:50AM -19.8886 143.6692 258° West 232 267 20,100  Level Aus ATC (RADAR)
11:51AM -19.9028 143.5963 258° West 234 269 20,100  Level Aus ATC (RADAR)
11:52AM -19.9173 143.5236 258° West 233 268 20,100  Level Aus ATC (RADAR)
11:53AM -19.9334 143.4571 256° West 232 267 20,100  Level Aus ATC (RADAR)
11:54AM -19.9472 143.3780 259° West 236 272 20,100  Level Aus ATC (RADAR)
11:55AM -19.9593 143.3105 259° West 233 268 20,100  Level Aus ATC (RADAR)
11:57AM -19.9742 143.2377 258° West 232 267 20,100  Level Aus ATC (RADAR)
11:58AM -19.9897 143.1646 257° West 235 270 20,100  Level Aus ATC (RADAR)
11:59AM -20.0062 143.0921 256° West 235 270 20,100  Level Aus ATC (RADAR)
12:00PM -20.0208 143.0190 258° West 234 269 20,100  Level Aus ATC (RADAR)
12:01PM -20.0353 142.9343 260° West 233 268 20,100  Level Aus ATC (RADAR)
12:02PM -20.0444 142.8654 262° West 236 272 20,100  Level Aus ATC (RADAR)
12:03PM -20.0533 142.8266 256° West 233 268 20,100 -60 Level Aus ATC (RADAR)
12:06PM -20.0917 142.6275 258° West 20,000 -60 Descending Aus ATC (Calculated)
12:07PM -20.1085 142.5404 258° West 20,000  Level Aus ATC (Calculated)
12:08PM -20.1208 142.4758 258° West  Level FlightAware Approximate
12:09PM -20.1332 142.4112 258° West  Level FlightAware Approximate
12:09PM -20.1398 142.3771 258° West 20,000  Level Aus ATC (Calculated)
12:10PM -20.1456 142.3466 258° West  Level FlightAware Approximate
12:11PM -20.1581 142.2810 258° West  Level FlightAware Approximate
12:12PM -20.1703 142.2169 259° West  Level FlightAware Approximate
12:13PM -20.1825 142.1528 259° West  Level FlightAware Approximate
12:13PM -20.1942 142.0912 258° West 20,000  Level Aus ATC (Calculated)
12:14PM -20.1947 142.0887 259° West  Level FlightAware Approximate
12:15PM -20.2132 141.9907 259° West  Level FlightAware Approximate
12:16PM -20.2253 141.9266 259° West  Level FlightAware Approximate
12:17PM -20.2373 141.8625 259° West  Level FlightAware Approximate
12:18PM -20.2494 141.7983 259° West  Level FlightAware Approximate
12:18PM -20.2548 141.7693 257° West 20,000  Level Aus ATC (Calculated)
12:20PM -20.2748 141.6623 259° West  Level FlightAware Approximate
12:21PM -20.2868 141.5981 259° West  Level FlightAware Approximate
12:22PM -20.2987 141.5340 259° West  Level FlightAware Approximate
12:23PM -20.3107 141.4698 259° West  Level FlightAware Approximate
12:23PM -20.3174 141.4337 256° West 20,000  Level Aus ATC (Calculated)
12:23PM -20.3174 141.4337 256° West 20,000  Level Aus ATC (Calculated)
12:25PM -20.3372 141.3267 259° West  Level FlightAware Approximate
12:26PM -20.3490 141.2624 259° West  Level FlightAware Approximate
12:27PM -20.3608 141.1982 259° West  Level FlightAware Approximate
12:27PM -20.3731 141.1299 235° Southwest 1,300  Level Aus ATC (Calculated)
12:28PM -20.3490 141.2624 79° East  Level FlightAware Approximate
12:29PM -20.3525 141.2435 79° East  Level FlightAware Approximate
12:29PM -20.3990 141.0910 259° West 224 258 20,000  Level FlightAware
12:30PM -20.3643 141.1792 259° West  Level Estimated
12:30PM -20.4140 141.0430 252° West 224 258 20,000  Level FlightAware
12:31PM -20.4290 140.9920 253° West 224 258 20,000  Level FlightAware
12:31PM -20.4420 140.9510 251° West 224 258 20,000  Level FlightAware
12:32PM -20.4289 140.8221 110° East 1,300  Descending Aus ATC (Calculated)
12:32PM -20.4570 140.9040 251° West 224 258 20,000 19,980 Climbing FlightAware
12:33PM -20.4700 140.8610 252° West 225 259 20,000  Level FlightAware
12:34PM -20.4880 140.8040 251° West 225 259 20,000  Level FlightAware
12:34PM -20.5010 140.7610 252° West 224 258 20,000  Level FlightAware
12:35PM -20.5160 140.7150 251° West 223 257 20,000  Level FlightAware
12:36PM -20.5290 140.6720 252° West 224 258 20,000  Level FlightAware
12:36PM -20.5410 140.6330 252° West 224 258 20,000  Level FlightAware
12:37PM -20.4888 140.4884 129° Southeast 1,300  Descending Aus ATC (Calculated)
12:37PM -20.5580 140.5790 251° West 225 259 20,000 16,980 Climbing FlightAware
12:38PM -20.5710 140.5360 251° West 225 259 20,000  Level FlightAware
12:38PM -20.5840 140.4940 252° West 225 259 20,000  Level FlightAware
12:39PM -20.5111 140.3632 138° Southeast 1,300  Descending Aus ATC (Calculated)
12:39PM -20.5980 140.4470 252° West 225 259 20,000 15,540 Climbing FlightAware
12:40PM -20.6100 140.4100 252° West 224 258 20,000 -180 Level FlightAware
12:40PM -20.5305 140.2536 131° Southeast 1,300 -300 Descending Aus ATC (Calculated)
12:40PM -20.6230 140.3670 252° West 224 258 19,800 20,400 Climbing FlightAware
12:41PM -20.5474 140.1577 120° Southeast 1,300 -1,200 Descending Aus ATC (Calculated)
12:41PM -20.6360 140.3240 252° West 232 267 19,000 22,380 Climbing FlightAware
12:42PM -20.5474 140.1577 132° Southeast 1,300 -1,380 Descending Aus ATC (Calculated)
12:42PM -20.6500 140.2800 252° West 236 272 18,100 18,000 Climbing FlightAware
12:43PM -20.6650 140.2280 252° West 239 275 17,200 -1,260 Descending FlightAware
12:43PM -20.6800 140.1820 251° West 238 274 16,300 -1,260 Descending FlightAware
12:43PM -20.5622 140.0738 155° Southeast 1,300 -1,200 Descending Aus ATC (Calculated)
12:44PM -20.6930 140.1390 251° West 239 275 15,500 9,720 Climbing FlightAware
12:45PM -20.7080 140.0890 252° West 246 283 14,600 -1,380 Descending FlightAware
12:45PM -20.7200 140.0490 252° West 251 289 13,800 -1,440 Descending FlightAware
12:46PM -20.7360 139.9960 252° West 258 297 12,800 -1,440 Descending FlightAware
12:46PM -20.6008 139.8534 149° Southeast 1,300 -1,500 Descending Aus ATC (Calculated)
12:47PM -20.7500 139.9500 252° West 256 295 11,900 9,180 Climbing FlightAware
12:47PM -20.7660 139.8980 252° West 250 288 11,000 -1,260 Descending FlightAware
12:48PM -20.7820 139.8450 252° West 240 276 10,000 -1,320 Descending FlightAware
12:48PM -20.7920 139.8140 251° West 236 272 9,400 -1,320 Descending FlightAware
12:49PM -20.8000 139.7870 252° West 233 268 8,900 -1,380 Descending FlightAware
12:49PM -20.8050 139.7690 253° West 227 261 8,500 -1,200 Descending FlightAware
12:49PM -20.6487 139.5777 138° Southeast 1,300 -1,020 Descending Aus ATC (Calculated)
12:50PM -20.8150 139.7380 251° West 217 250 8,000 6,720 Climbing FlightAware
12:50PM -20.8230 139.7110 251° West 210 242 7,500 -1,200 Descending FlightAware
12:51PM -20.8300 139.6880 252° West 197 227 7,000 -1,080 Descending FlightAware
12:51PM -20.8390 139.6590 252° West 183 211 6,500 -1,020 Descending FlightAware
12:51PM -20.6639 139.4887 142° Southeast 1,100 -1,020 Descending Aus ATC (Calculated)
12:51PM -20.8410 139.6380 264° West 176 203 6,100 6,540 Climbing FlightAware
12:52PM -20.8430 139.6110 265° West 173 199 5,600 -1,080 Descending FlightAware
12:52PM -20.8440 139.5880 265° West 177 204 5,100 -1,020 Descending FlightAware
12:53PM -20.8440 139.5740 270° West 177 204 4,900 -840 Descending FlightAware
12:53PM -20.8400 139.5640 293° West 170 196 4,700 -960 Descending FlightAware
12:53PM -20.8320 139.5570 321° Northwest 168 193 4,500 -1,080 Descending FlightAware
12:54PM -20.8130 139.5470 334° Northwest 160 184 4,000 -1,080 Descending FlightAware
12:54PM -20.8040 139.5430 337° Northwest 159 183 3,800 -960 Descending FlightAware
12:54PM -20.7860 139.5360 340° North 148 170 3,400 -900 Descending FlightAware
12:55PM -20.7690 139.5280 336° Northwest 125 144 3,000 -780 Descending FlightAware
12:55PM -20.7550 139.5220 338° Northwest 114 131 2,700 -600 Descending FlightAware
12:55PM -20.7470 139.5190 341° North 112 129 2,600 -600 Descending FlightAware
12:56PM -20.7340 139.5130 337° Northwest 117 135 2,300 -660 Descending FlightAware
12:56PM -20.7190 139.5060 336° Northwest 120 138 2,000 -600 Descending FlightAware
12:57PM -20.7070 139.5000 335° Northwest 109 125 1,800 -600 Descending FlightAware
12:57PM -20.6990 139.4970 341° North 102 117 1,600 -600 Descending FlightAware
12:58PM -20.6870 139.4930 343° North 99 114 1,400 -600 Descending FlightAware
12:58PM -20.6750 139.4900 347° North 91 105 1,100 -660 Descending FlightAware
12:58PM -20.6700 139.4890 349° North 42 48 -4,140 Descending FlightAware
12:59PM -20.6670 139.4890 360° North 24 28  Level FlightAware
12:59PM -20.6680 139.4890 180° South 24 28  Level FlightAware
01:00PM -20.6690 139.4890 180° South 28 32  Level FlightAware